Time;durP1;ratioP1;P1;durP2;ratioP2;P2;SDS_P1;SDS_P2;PMS_P1;PMS_P2;Temp;Humidity;BMP_temperature;BMP_pressure;BME280_temperature;BME280_humidity;BME280_pressure;Samples;Min_cycle;Max_cycle;Signal;HPM_P1;HPM_P2
2021/10/25 00:01:23;;;;;;;13.13;6.65;;;10.40;99.90;;;;;;5004638;28;20317;-82
2021/10/25 00:03:50;;;;;;;6.57;5.88;;;10.40;99.90;;;;;;5001809;28;20202;-85
2021/10/25 00:06:17;;;;;;;8.07;6.60;;;10.40;99.90;;;;;;5002374;28;20540;-83
2021/10/25 00:08:46;;;;;;;14.45;5.78;;;10.40;99.90;;;;;;4998359;28;20205;-83
2021/10/25 00:11:13;;;;;;;9.68;6.30;;;10.40;99.90;;;;;;5004275;28;20203;-83
2021/10/25 00:13:40;;;;;;;12.27;6.68;;;10.50;99.90;;;;;;5000755;28;20197;-82
2021/10/25 00:16:08;;;;;;;11.98;6.68;;;10.50;99.90;;;;;;5001328;28;20638;-83
2021/10/25 00:18:36;;;;;;;9.20;6.05;;;10.50;99.90;;;;;;5000547;28;20690;-83
2021/10/25 00:21:03;;;;;;;7.43;5.07;;;10.50;99.90;;;;;;5005932;28;20488;-80
2021/10/25 00:23:30;;;;;;;7.05;5.60;;;10.50;99.90;;;;;;5001811;28;20279;-81
2021/10/25 00:25:58;;;;;;;16.27;6.00;;;10.60;99.90;;;;;;5001547;28;20195;-82
2021/10/25 00:28:25;;;;;;;10.52;5.15;;;10.60;99.90;;;;;;5000034;28;20272;-82
2021/10/25 00:30:52;;;;;;;7.82;5.63;;;10.60;99.90;;;;;;5004200;28;20194;-81
2021/10/25 00:33:20;;;;;;;6.30;5.63;;;10.60;99.90;;;;;;4998431;28;20203;-81
2021/10/25 00:35:48;;;;;;;5.90;5.00;;;10.60;99.90;;;;;;5004031;28;20789;-81
2021/10/25 00:38:15;;;;;;;7.38;6.18;;;10.60;99.90;;;;;;5000000;28;20253;-80
2021/10/25 00:40:43;;;;;;;9.73;5.95;;;10.60;99.90;;;;;;5003224;28;20253;-82
2021/10/25 00:43:10;;;;;;;10.43;5.53;;;10.60;99.90;;;;;;5003486;28;20198;-81
2021/10/25 00:45:37;;;;;;;7.07;5.95;;;10.60;99.90;;;;;;5004011;28;20387;-83
2021/10/25 00:48:05;;;;;;;8.20;5.78;;;10.60;99.90;;;;;;5004328;28;20721;-84
2021/10/25 00:50:34;;;;;;;7.28;5.78;;;10.60;99.90;;;;;;5000315;28;20287;-83
2021/10/25 00:53:00;;;;;;;10.85;6.00;;;10.60;99.90;;;;;;5000969;28;20198;-81
2021/10/25 00:55:28;;;;;;;8.20;6.60;;;10.60;99.90;;;;;;4995289;28;20225;-81
2021/10/25 00:57:55;;;;;;;11.57;6.05;;;10.50;99.90;;;;;;4998194;28;20316;-81
2021/10/25 01:00:24;;;;;;;9.27;6.50;;;10.50;99.90;;;;;;5000968;28;20205;-83
2021/10/25 01:02:51;;;;;;;6.60;6.00;;;10.50;99.90;;;;;;4998171;28;20504;-80
2021/10/25 01:05:18;;;;;;;10.45;6.25;;;10.40;99.90;;;;;;5000004;28;20201;-81
2021/10/25 01:07:47;;;;;;;12.07;6.25;;;10.40;99.90;;;;;;5004319;28;20208;-81
2021/10/25 01:10:15;;;;;;;11.75;7.38;;;10.30;99.90;;;;;;4999232;28;20190;-80
2021/10/25 01:12:43;;;;;;;6.88;6.18;;;10.30;99.90;;;;;;4999388;28;20209;-82
2021/10/25 01:15:11;;;;;;;10.60;6.70;;;10.30;99.90;;;;;;5001062;28;20218;-83
2021/10/25 01:17:38;;;;;;;13.00;6.90;;;10.30;99.90;;;;;;5002502;28;20233;-81
2021/10/25 01:20:07;;;;;;;9.43;5.72;;;10.20;99.90;;;;;;4997696;28;20308;-80
2021/10/25 01:22:34;;;;;;;10.88;6.82;;;10.20;99.90;;;;;;5002238;28;20192;-80
2021/10/25 01:25:02;;;;;;;5.40;4.75;;;10.20;99.90;;;;;;5003258;28;20256;-82
2021/10/25 01:27:29;;;;;;;10.00;6.68;;;10.10;99.90;;;;;;5000494;28;20323;-82
2021/10/25 01:29:56;;;;;;;9.43;5.35;;;10.10;99.90;;;;;;5000708;28;20225;-80
2021/10/25 01:32:24;;;;;;;7.90;6.20;;;10.10;99.90;;;;;;5003207;28;20284;-83
2021/10/25 01:34:51;;;;;;;9.48;6.63;;;10.00;99.90;;;;;;5002496;28;20310;-80
2021/10/25 01:37:20;;;;;;;7.60;6.65;;;10.00;99.90;;;;;;4998387;28;20857;-80
2021/10/25 01:39:46;;;;;;;7.45;6.50;;;10.00;99.90;;;;;;4998418;28;20198;-84
2021/10/25 01:42:14;;;;;;;9.98;6.10;;;10.00;99.90;;;;;;5000475;28;20200;-84
2021/10/25 01:44:41;;;;;;;7.38;6.38;;;10.00;99.90;;;;;;5002711;28;20193;-81
2021/10/25 01:47:09;;;;;;;10.18;6.00;;;10.00;99.90;;;;;;4998627;28;20479;-80
2021/10/25 01:49:37;;;;;;;8.93;6.18;;;10.00;99.90;;;;;;5004765;28;20282;-81
2021/10/25 01:52:05;;;;;;;7.72;6.40;;;10.00;99.90;;;;;;4998087;28;20197;-80
2021/10/25 01:54:34;;;;;;;15.38;6.88;;;10.00;99.90;;;;;;5003491;28;20268;-82
2021/10/25 01:57:00;;;;;;;11.10;6.82;;;10.00;99.90;;;;;;4994777;28;20200;-81
2021/10/25 01:59:28;;;;;;;7.60;6.90;;;10.00;99.90;;;;;;5004278;28;20226;-80
2021/10/25 02:01:55;;;;;;;7.60;6.63;;;10.00;99.90;;;;;;5006682;28;20302;-82
2021/10/25 02:04:22;;;;;;;11.30;6.38;;;10.00;99.90;;;;;;5005509;28;20624;-80
2021/10/25 02:06:49;;;;;;;6.85;6.10;;;10.00;99.90;;;;;;5000455;28;20212;-81
2021/10/25 02:09:16;;;;;;;7.00;6.40;;;10.00;99.90;;;;;;5000920;28;20208;-80
2021/10/25 02:11:46;;;;;;;6.03;5.47;;;10.00;99.90;;;;;;5007703;28;20200;-81
2021/10/25 02:14:13;;;;;;;8.05;5.68;;;10.00;99.90;;;;;;5005241;28;20586;-81
2021/10/25 02:16:40;;;;;;;7.07;6.30;;;10.00;99.90;;;;;;5003408;28;20288;-83
2021/10/25 02:19:08;;;;;;;10.10;6.40;;;10.00;99.90;;;;;;5004522;28;20577;-81
2021/10/25 02:21:36;;;;;;;6.75;5.70;;;10.00;99.90;;;;;;5004973;28;20296;-80
2021/10/25 02:24:04;;;;;;;9.00;6.13;;;10.00;99.90;;;;;;5005215;28;20281;-80
2021/10/25 02:26:31;;;;;;;9.25;6.63;;;10.00;99.90;;;;;;5005537;28;20205;-80
2021/10/25 02:29:00;;;;;;;7.43;5.82;;;10.00;99.90;;;;;;5003888;28;20223;-81
2021/10/25 02:31:27;;;;;;;6.78;5.45;;;10.00;99.90;;;;;;5000552;28;20720;-81
2021/10/25 02:33:55;;;;;;;8.00;5.70;;;10.00;99.90;;;;;;4999336;28;20281;-81
2021/10/25 02:36:22;;;;;;;8.55;6.47;;;9.90;99.90;;;;;;5005244;28;20224;-81
2021/10/25 02:38:49;;;;;;;9.27;6.93;;;10.00;99.90;;;;;;5004001;28;20225;-80
2021/10/25 02:41:17;;;;;;;9.63;6.20;;;10.00;99.90;;;;;;5006135;28;20207;-80
2021/10/25 02:43:44;;;;;;;7.43;5.95;;;9.90;99.90;;;;;;5001458;28;20720;-81
2021/10/25 02:46:14;;;;;;;9.15;5.97;;;9.90;99.90;;;;;;5002142;28;20193;-82
2021/10/25 02:48:43;;;;;;;6.38;5.60;;;9.90;99.90;;;;;;5002586;28;20189;-80
2021/10/25 02:51:10;;;;;;;6.72;5.53;;;9.90;99.90;;;;;;5005779;28;20588;-80
2021/10/25 02:53:39;;;;;;;7.32;6.43;;;9.90;99.90;;;;;;5004009;28;20213;-80
2021/10/25 02:56:06;;;;;;;8.27;6.10;;;9.90;99.90;;;;;;5004995;28;20316;-81
2021/10/25 02:58:34;;;;;;;9.52;6.25;;;9.90;99.90;;;;;;4999659;28;20222;-80
2021/10/25 03:01:01;;;;;;;8.55;5.82;;;9.90;99.90;;;;;;4999662;28;20281;-81
2021/10/25 03:03:30;;;;;;;10.82;6.55;;;9.90;99.90;;;;;;5003578;28;20294;-82
2021/10/25 03:05:58;;;;;;;10.63;5.80;;;9.90;99.90;;;;;;5003407;28;20200;-80
2021/10/25 03:08:26;;;;;;;7.03;5.50;;;9.90;99.90;;;;;;5003174;28;20205;-83
2021/10/25 03:10:53;;;;;;;9.63;5.82;;;9.80;99.90;;;;;;5002162;28;20260;-80
2021/10/25 03:13:21;;;;;;;6.90;5.57;;;9.80;99.90;;;;;;5002740;28;20207;-83
2021/10/25 03:15:48;;;;;;;6.68;5.88;;;9.80;99.90;;;;;;5004397;28;20204;-81
2021/10/25 03:18:15;;;;;;;5.93;5.32;;;9.80;99.90;;;;;;5001893;28;20246;-83
2021/10/25 03:20:44;;;;;;;12.07;7.38;;;9.90;99.90;;;;;;5001288;28;20552;-81
2021/10/25 03:23:12;;;;;;;7.10;5.45;;;9.90;99.90;;;;;;5004244;28;20193;-82
2021/10/25 03:25:39;;;;;;;6.35;5.75;;;9.90;99.90;;;;;;4998600;28;20214;-83
2021/10/25 03:28:06;;;;;;;10.75;5.70;;;9.90;99.90;;;;;;5004228;28;20214;-82
2021/10/25 03:30:34;;;;;;;6.97;6.03;;;9.80;99.90;;;;;;5005026;28;20220;-80
2021/10/25 03:33:01;;;;;;;7.15;5.75;;;9.80;99.90;;;;;;5002588;28;20280;-80
2021/10/25 03:35:28;;;;;;;14.38;5.45;;;9.80;99.90;;;;;;5002989;28;20702;-81
2021/10/25 03:37:58;;;;;;;5.80;5.30;;;9.90;99.90;;;;;;5000847;28;20288;-80
2021/10/25 03:40:27;;;;;;;5.95;5.25;;;9.80;99.90;;;;;;5000349;28;20205;-80
2021/10/25 03:42:55;;;;;;;7.10;5.43;;;9.80;99.90;;;;;;5005305;28;20204;-81
2021/10/25 03:45:26;;;;;;;10.77;5.28;;;9.80;99.90;;;;;;5003609;28;20212;-83
2021/10/25 03:47:58;;;;;;;12.10;5.85;;;9.80;99.90;;;;;;4997655;28;20592;-81
2021/10/25 03:50:27;;;;;;;7.38;5.18;;;9.80;99.90;;;;;;5004989;28;20601;-83
2021/10/25 03:53:01;;;;;;;6.95;5.47;;;9.80;99.90;;;;;;5000559;28;20189;-81
2021/10/25 03:55:33;;;;;;;11.05;6.07;;;9.90;99.90;;;;;;5004645;28;20236;-81
2021/10/25 03:58:22;;;;;;;9.57;5.40;;;9.80;99.90;;;;;;5005410;28;20196;-80
2021/10/25 04:01:04;;;;;;;6.88;5.00;;;9.80;99.90;;;;;;5004169;28;20215;-82
2021/10/25 04:28:21;;;;;;;6.57;5.78;;;9.90;99.90;;;;;;4995972;28;20222;-81
2021/10/25 04:30:55;;;;;;;7.25;5.68;;;9.90;99.90;;;;;;5000802;28;20210;-82
2021/10/25 04:33:22;;;;;;;6.65;5.10;;;9.90;99.90;;;;;;4998319;28;20205;-79
2021/10/25 04:35:51;;;;;;;6.45;5.82;;;9.90;99.90;;;;;;4997380;28;20208;-80
2021/10/25 04:38:18;;;;;;;7.28;6.25;;;9.90;99.90;;;;;;5004830;28;20229;-80
2021/10/25 04:40:46;;;;;;;7.78;6.20;;;10.00;99.90;;;;;;4999237;28;20277;-84
2021/10/25 04:43:14;;;;;;;13.35;5.38;;;10.00;99.90;;;;;;5001228;28;20197;-82
2021/10/25 04:45:41;;;;;;;5.97;5.28;;;10.00;99.90;;;;;;5005466;28;20203;-80
2021/10/25 04:48:09;;;;;;;11.52;5.75;;;10.00;99.90;;;;;;5004297;28;20796;-81
2021/10/25 04:50:36;;;;;;;7.40;5.35;;;10.00;99.90;;;;;;5000558;28;20191;-83
2021/10/25 04:53:03;;;;;;;8.52;5.10;;;10.00;99.90;;;;;;5005317;28;20217;-81
2021/10/25 04:55:30;;;;;;;10.10;6.28;;;10.10;99.90;;;;;;5006201;28;20229;-80
2021/10/25 04:57:58;;;;;;;9.80;5.70;;;10.10;99.90;;;;;;5004496;28;20705;-80
2021/10/25 05:00:25;;;;;;;10.15;5.97;;;10.10;99.90;;;;;;5000852;28;20222;-81
2021/10/25 05:02:53;;;;;;;6.10;5.45;;;10.10;99.90;;;;;;4997694;28;20203;-83
2021/10/25 05:05:20;;;;;;;8.43;5.00;;;10.20;99.90;;;;;;5000528;28;20196;-82
2021/10/25 05:07:47;;;;;;;9.48;6.43;;;10.20;99.90;;;;;;5001221;28;20795;-81
2021/10/25 05:10:13;;;;;;;12.75;5.20;;;10.20;99.90;;;;;;4997955;28;20206;-81
2021/10/25 05:12:40;;;;;;;9.07;4.80;;;10.20;99.90;;;;;;5003262;28;20682;-81
2021/10/25 05:15:09;;;;;;;11.63;4.85;;;10.20;99.90;;;;;;5001527;28;20607;-81
2021/10/25 05:17:36;;;;;;;6.10;5.18;;;10.20;99.90;;;;;;5001917;28;20205;-82
2021/10/25 05:20:04;;;;;;;6.45;5.20;;;10.20;99.90;;;;;;4991024;28;20233;-81
2021/10/25 05:22:31;;;;;;;10.13;5.80;;;10.20;99.90;;;;;;5001155;28;20304;-81
2021/10/25 05:24:58;;;;;;;11.07;5.90;;;10.20;99.90;;;;;;5000229;28;20610;-82
2021/10/25 05:27:25;;;;;;;13.32;8.20;;;10.20;99.90;;;;;;5001582;28;20197;-81
2021/10/25 05:29:52;;;;;;;18.23;10.75;;;10.20;99.90;;;;;;5001378;28;20225;-81
2021/10/25 05:32:20;;;;;;;18.35;7.45;;;10.20;99.90;;;;;;5005420;28;20202;-81
2021/10/25 05:34:47;;;;;;;6.38;5.60;;;10.20;99.90;;;;;;5000238;28;20201;-83
2021/10/25 05:37:14;;;;;;;10.07;5.35;;;10.20;99.90;;;;;;5002045;28;20204;-83
2021/10/25 05:39:41;;;;;;;6.05;5.18;;;10.20;99.90;;;;;;5000660;28;20221;-83
2021/10/25 05:42:10;;;;;;;7.38;5.15;;;10.20;99.90;;;;;;5000899;28;20196;-81
2021/10/25 05:44:37;;;;;;;9.63;5.15;;;10.10;99.90;;;;;;5005513;28;20198;-81
2021/10/25 05:47:05;;;;;;;7.05;6.25;;;10.20;99.90;;;;;;4997827;28;20980;-80
2021/10/25 05:49:34;;;;;;;9.52;5.18;;;10.10;99.90;;;;;;4999524;28;20224;-84
2021/10/25 05:52:01;;;;;;;7.88;5.38;;;10.10;99.90;;;;;;4998719;28;20386;-80
2021/10/25 05:54:28;;;;;;;10.68;6.45;;;10.10;99.90;;;;;;5003211;28;20239;-81
2021/10/25 05:56:55;;;;;;;8.98;6.15;;;10.10;99.90;;;;;;5003938;28;20285;-81
2021/10/25 05:59:25;;;;;;;8.82;6.22;;;10.10;99.90;;;;;;5000412;28;20233;-82
2021/10/25 06:02:06;;;;;;;10.85;6.20;;;10.10;99.90;;;;;;4998202;28;20205;-81
2021/10/25 06:04:35;;;;;;;13.60;5.53;;;10.10;99.90;;;;;;4996476;28;20334;-80
2021/10/25 06:07:02;;;;;;;9.13;6.30;;;10.10;99.90;;;;;;4996319;28;20204;-81
2021/10/25 06:09:33;;;;;;;10.13;5.68;;;10.10;99.90;;;;;;4997162;28;20683;-81
2021/10/25 06:12:01;;;;;;;6.53;5.55;;;10.10;99.90;;;;;;5002969;28;20725;-81
2021/10/25 06:14:32;;;;;;;6.72;5.75;;;10.10;99.90;;;;;;5004417;28;20301;-81
2021/10/25 06:17:00;;;;;;;12.90;5.55;;;10.10;99.90;;;;;;4996126;28;20576;-81
2021/10/25 06:19:27;;;;;;;7.43;4.82;;;10.00;99.90;;;;;;4998317;28;20234;-81
2021/10/25 06:21:55;;;;;;;6.72;5.35;;;10.00;99.90;;;;;;4995437;28;20210;-83
2021/10/25 06:24:22;;;;;;;14.55;11.15;;;10.00;99.90;;;;;;4999849;28;20228;-80
2021/10/25 06:26:52;;;;;;;12.30;9.77;;;10.00;99.90;;;;;;5001887;28;21187;-81
2021/10/25 06:29:19;;;;;;;6.97;5.50;;;10.00;99.90;;;;;;4997683;28;20312;-80
2021/10/25 06:31:46;;;;;;;10.00;5.70;;;10.00;99.90;;;;;;5000047;28;20677;-83
2021/10/25 06:34:20;;;;;;;6.18;5.43;;;10.00;99.90;;;;;;4998568;28;20190;-81
2021/10/25 06:36:51;;;;;;;5.40;4.72;;;10.00;99.90;;;;;;4999352;28;20198;-81
2021/10/25 06:39:28;;;;;;;9.38;5.07;;;10.00;99.90;;;;;;5001804;28;20329;-81
2021/10/25 06:41:56;;;;;;;5.10;4.70;;;10.00;99.90;;;;;;4994603;28;20226;-81
2021/10/25 06:44:24;;;;;;;7.47;5.25;;;10.00;99.90;;;;;;5003547;28;20296;-81
2021/10/25 06:46:51;;;;;;;8.23;5.10;;;10.00;99.90;;;;;;5003454;28;20662;-81
2021/10/25 06:49:18;;;;;;;6.63;5.35;;;10.00;99.90;;;;;;4997843;28;20568;-81
2021/10/25 06:51:45;;;;;;;10.88;5.80;;;10.00;99.90;;;;;;4995800;28;20662;-83
2021/10/25 06:54:13;;;;;;;7.57;5.40;;;10.00;99.90;;;;;;4998404;28;20236;-82
2021/10/25 06:56:42;;;;;;;9.63;4.97;;;10.00;99.90;;;;;;4997268;28;20707;-82
2021/10/25 06:59:08;;;;;;;7.90;5.28;;;10.00;99.90;;;;;;5000737;28;20226;-81
2021/10/25 07:01:35;;;;;;;7.18;4.85;;;10.00;99.90;;;;;;5003977;28;20203;-80
2021/10/25 07:04:02;;;;;;;5.55;4.60;;;10.00;99.90;;;;;;4998378;28;20207;-81
2021/10/25 07:06:31;;;;;;;7.50;5.75;;;10.00;99.90;;;;;;4997035;28;20216;-83
2021/10/25 07:09:00;;;;;;;4.80;4.40;;;10.00;99.90;;;;;;4998044;28;20198;-81
2021/10/25 07:11:27;;;;;;;9.55;6.22;;;10.00;99.90;;;;;;5000484;28;20204;-82
2021/10/25 07:13:56;;;;;;;11.32;5.05;;;10.00;99.90;;;;;;4993335;28;20259;-81
2021/10/25 07:16:28;;;;;;;8.65;5.13;;;10.00;99.90;;;;;;5000099;28;20211;-81
2021/10/25 07:19:07;;;;;;;8.70;4.90;;;10.00;99.90;;;;;;5003788;28;20202;-83
2021/10/25 07:27:24;;;;;;;7.65;5.25;;;10.10;99.90;;;;;;4998776;28;20208;-83
2021/10/25 08:00:28;;;;;;;6.05;4.35;;;10.40;99.90;;;;;;4959813;28;20346;-85
2021/10/25 08:05:49;;;;;;;16.02;10.60;;;10.50;99.90;;;;;;4999104;28;20205;-84
2021/10/25 08:08:28;;;;;;;6.88;6.10;;;10.50;99.90;;;;;;5003248;28;20215;-85
2021/10/25 08:11:00;;;;;;;7.35;4.50;;;10.50;99.90;;;;;;4996435;28;20206;-82
2021/10/25 08:13:30;;;;;;;6.90;5.22;;;10.50;99.90;;;;;;4997124;28;20202;-82
2021/10/25 08:15:58;;;;;;;5.40;4.93;;;10.50;99.90;;;;;;5000119;28;20294;-82
2021/10/25 08:18:40;;;;;;;10.82;5.28;;;10.60;99.90;;;;;;4993684;28;20216;-82
2021/10/25 08:21:08;;;;;;;7.13;5.20;;;10.60;99.90;;;;;;4999046;28;20218;-82
2021/10/25 08:23:35;;;;;;;5.43;4.65;;;10.60;99.90;;;;;;4997246;28;20213;-82
2021/10/25 08:26:02;;;;;;;6.75;5.47;;;10.70;99.90;;;;;;5003288;28;20209;-82
2021/10/25 08:28:29;;;;;;;9.23;5.55;;;10.70;99.90;;;;;;4998663;28;20253;-85
2021/10/25 08:30:58;;;;;;;6.18;5.57;;;10.70;99.90;;;;;;4997985;28;20262;-82
2021/10/25 08:33:43;;;;;;;5.35;4.68;;;10.80;99.90;;;;;;4996497;28;20199;-84
2021/10/25 08:36:14;;;;;;;6.05;4.88;;;10.80;99.90;;;;;;4997059;28;20256;-83
2021/10/25 08:41:28;;;;;;;4.88;4.32;;;10.90;99.90;;;;;;4997597;28;20268;-82
2021/10/25 08:43:56;;;;;;;5.97;5.40;;;10.80;99.90;;;;;;4999316;28;20205;-82
2021/10/25 08:46:25;;;;;;;7.63;5.40;;;10.90;99.90;;;;;;5000186;28;20206;-81
2021/10/25 08:48:55;;;;;;;15.40;4.88;;;10.90;99.90;;;;;;4999215;28;20470;-82
2021/10/25 08:51:24;;;;;;;18.67;8.80;;;11.00;99.90;;;;;;4998292;28;20209;-82
2021/10/25 08:53:51;;;;;;;26.58;12.85;;;11.00;99.90;;;;;;4996276;28;20218;-82
2021/10/25 08:56:19;;;;;;;19.02;7.65;;;11.10;99.90;;;;;;5002415;28;20554;-85
2021/10/25 08:58:49;;;;;;;7.13;5.43;;;11.10;99.90;;;;;;4998420;28;20532;-82
2021/10/25 09:01:24;;;;;;;8.20;4.88;;;11.20;99.90;;;;;;4996963;28;20316;-85
2021/10/25 09:04:05;;;;;;;5.90;5.03;;;11.30;99.90;;;;;;4999912;28;20198;-82
2021/10/25 09:06:32;;;;;;;9.52;4.50;;;11.30;99.90;;;;;;4996193;28;20492;-83
2021/10/25 09:09:00;;;;;;;5.90;5.00;;;11.30;99.90;;;;;;4996806;28;20208;-84
2021/10/25 09:11:28;;;;;;;8.40;5.38;;;11.40;99.90;;;;;;4994236;28;20209;-82
2021/10/25 09:13:56;;;;;;;7.05;4.90;;;11.40;99.90;;;;;;4997156;28;20199;-82
2021/10/25 09:16:23;;;;;;;5.85;5.25;;;11.50;99.90;;;;;;4995940;28;20196;-82
2021/10/25 09:18:50;;;;;;;11.30;5.27;;;11.50;99.90;;;;;;4995968;28;20293;-82
2021/10/25 09:21:18;;;;;;;11.93;4.78;;;11.60;99.90;;;;;;4996590;28;20516;-82
2021/10/25 09:23:47;;;;;;;5.30;4.80;;;11.60;99.90;;;;;;4994053;28;20760;-83
2021/10/25 09:26:18;;;;;;;5.20;4.70;;;11.70;99.90;;;;;;4996296;28;20532;-81
2021/10/25 09:28:48;;;;;;;6.53;4.67;;;11.70;99.90;;;;;;4998123;28;20210;-82
2021/10/25 09:31:21;;;;;;;12.20;5.30;;;11.80;99.90;;;;;;4999029;28;20464;-82
2021/10/25 09:33:52;;;;;;;5.53;4.43;;;11.80;99.90;;;;;;4996892;28;20595;-82
2021/10/25 09:36:20;;;;;;;5.50;4.47;;;11.90;99.90;;;;;;5001692;28;20565;-82
2021/10/25 09:39:00;;;;;;;5.23;4.73;;;11.90;99.90;;;;;;4998554;28;20224;-84
2021/10/25 09:49:59;;;;;;;6.53;4.80;;;12.10;99.90;;;;;;5000163;28;20463;-83
2021/10/25 09:52:32;;;;;;;9.07;5.67;;;12.20;99.90;;;;;;4999728;28;20474;-84
2021/10/25 09:55:01;;;;;;;7.47;5.40;;;12.20;99.90;;;;;;4999602;28;20505;-81
2021/10/25 09:57:38;;;;;;;5.47;4.97;;;12.30;99.90;;;;;;4998702;28;20539;-83
2021/10/25 10:00:07;;;;;;;9.43;5.57;;;12.30;99.90;;;;;;4996107;28;20484;-83
2021/10/25 10:02:35;;;;;;;6.23;5.20;;;12.30;99.90;;;;;;4993902;28;20458;-82
2021/10/25 10:05:04;;;;;;;6.13;5.27;;;12.40;99.90;;;;;;4993439;28;20462;-82
2021/10/25 10:07:34;;;;;;;9.23;5.10;;;12.40;99.90;;;;;;4989924;28;20485;-83
2021/10/25 10:10:01;;;;;;;10.80;5.00;;;12.50;99.90;;;;;;4996703;28;20466;-84
2021/10/25 10:12:28;;;;;;;5.57;4.87;;;12.50;99.90;;;;;;4992278;28;20458;-81
2021/10/25 10:14:57;;;;;;;6.90;4.90;;;12.50;99.90;;;;;;4997478;28;20467;-81
2021/10/25 10:17:29;;;;;;;5.97;4.90;;;12.60;99.90;;;;;;5004103;28;20466;-81
2021/10/25 10:20:00;;;;;;;6.40;4.60;;;12.60;99.90;;;;;;4998256;28;20524;-83
2021/10/25 10:22:29;;;;;;;9.30;6.57;;;12.70;99.90;;;;;;5000361;28;20495;-82
2021/10/25 10:24:58;;;;;;;7.07;4.80;;;12.70;99.90;;;;;;5005863;28;20868;-82
2021/10/25 10:27:25;;;;;;;8.73;5.57;;;12.80;99.90;;;;;;5004070;28;20462;-82
2021/10/25 10:29:54;;;;;;;10.17;5.97;;;12.90;99.90;;;;;;5001117;28;20479;-83
2021/10/25 10:32:22;;;;;;;7.37;5.00;;;13.00;99.90;;;;;;5003612;28;20488;-82
2021/10/25 10:34:51;;;;;;;8.63;5.30;;;13.00;99.90;;;;;;5005861;28;20454;-85
2021/10/25 10:37:21;;;;;;;6.17;5.57;;;13.10;99.90;;;;;;4997551;28;20461;-82
2021/10/25 10:40:10;;;;;;;5.93;5.23;;;13.10;99.90;;;;;;5000038;28;20840;-82
2021/10/25 10:42:42;;;;;;;5.60;5.10;;;13.20;99.90;;;;;;4998834;28;20556;-82
2021/10/25 10:45:11;;;;;;;6.67;5.47;;;13.20;99.90;;;;;;5001875;28;20462;-82
2021/10/25 10:47:43;;;;;;;12.63;5.87;;;13.30;99.90;;;;;;5000496;28;20461;-82
2021/10/25 10:50:21;;;;;;;8.57;6.00;;;13.30;99.90;;;;;;4993642;28;20466;-83
2021/10/25 10:52:59;;;;;;;5.37;4.80;;;13.40;99.90;;;;;;5003525;28;20528;-81
2021/10/25 10:55:29;;;;;;;7.40;4.60;;;13.40;99.90;;;;;;4996522;28;21462;-82
2021/10/25 10:58:22;;;;;;;7.87;5.13;;;13.40;99.90;;;;;;4995867;28;20463;-82
2021/10/25 11:00:59;;;;;;;7.43;5.50;;;13.40;99.90;;;;;;5000871;28;20584;-85
2021/10/25 11:03:28;;;;;;;9.80;5.70;;;13.40;99.90;;;;;;5002038;28;20471;-81
2021/10/25 11:05:59;;;;;;;10.10;5.30;;;13.50;99.90;;;;;;4999032;28;20460;-82
2021/10/25 11:08:33;;;;;;;7.80;5.40;;;13.50;99.90;;;;;;4998605;28;20561;-82
2021/10/25 11:11:03;;;;;;;7.13;5.23;;;13.60;99.90;;;;;;5000318;28;21432;-85
2021/10/25 11:13:33;;;;;;;8.10;5.03;;;13.60;99.90;;;;;;4993549;28;20462;-82
2021/10/25 11:16:06;;;;;;;11.50;4.63;;;13.60;99.90;;;;;;5000359;28;20476;-82
2021/10/25 11:18:34;;;;;;;8.03;5.77;;;13.60;99.90;;;;;;4998436;28;20464;-82
2021/10/25 11:21:21;;;;;;;7.90;4.37;;;13.70;99.90;;;;;;4995367;28;20582;-81
2021/10/25 11:23:51;;;;;;;7.87;5.17;;;13.70;99.90;;;;;;5001766;28;20868;-80
2021/10/25 11:26:21;;;;;;;5.07;3.47;;;13.80;99.90;;;;;;4992590;28;20467;-85
2021/10/25 11:28:58;;;;;;;9.40;4.60;;;13.90;99.90;;;;;;5002323;28;20512;-84
2021/10/25 11:31:25;;;;;;;7.00;4.27;;;14.00;99.90;;;;;;4997358;28;20855;-85
2021/10/25 11:33:52;;;;;;;6.10;4.10;;;14.10;99.90;;;;;;5001249;28;20455;-84
2021/10/25 11:36:21;;;;;;;11.40;5.63;;;14.10;99.90;;;;;;4998727;28;20473;-82
2021/10/25 11:38:48;;;;;;;7.40;5.00;;;14.10;99.90;;;;;;4996721;28;20465;-83
2021/10/25 11:41:15;;;;;;;5.80;3.37;;;14.20;99.90;;;;;;5000162;28;20493;-84
2021/10/25 11:43:43;;;;;;;3.43;2.70;;;14.30;99.90;;;;;;4990540;28;20472;-82
2021/10/25 11:46:19;;;;;;;5.13;2.80;;;14.30;99.90;;;;;;5000769;28;20493;-82
2021/10/25 11:48:55;;;;;;;3.00;2.63;;;14.40;99.90;;;;;;4995086;28;20999;-82
2021/10/25 11:51:22;;;;;;;3.30;2.73;;;14.50;99.90;;;;;;5007469;28;20474;-83
2021/10/25 11:53:54;;;;;;;2.93;2.60;;;14.60;99.90;;;;;;4997106;28;20870;-84
2021/10/25 11:56:21;;;;;;;4.40;3.10;;;14.60;99.90;;;;;;4997181;28;20477;-84
2021/10/25 11:58:50;;;;;;;3.63;2.87;;;14.60;99.90;;;;;;5000988;28;20469;-82
2021/10/25 12:01:17;;;;;;;3.40;2.83;;;14.70;99.90;;;;;;4994590;28;20510;-82
2021/10/25 12:03:44;;;;;;;5.27;3.60;;;14.70;99.90;;;;;;4990892;28;20474;-82
2021/10/25 12:06:15;;;;;;;3.53;2.70;;;14.70;99.90;;;;;;4999635;28;20467;-83
2021/10/25 12:08:53;;;;;;;3.30;2.93;;;14.80;99.90;;;;;;4998356;28;20475;-84
2021/10/25 12:11:30;;;;;;;2.80;2.60;;;14.80;99.90;;;;;;4996931;28;20471;-85
2021/10/25 12:14:03;;;;;;;2.80;2.50;;;14.80;99.90;;;;;;4997592;28;20794;-82
2021/10/25 12:16:32;;;;;;;3.27;2.57;;;14.80;99.90;;;;;;5000871;28;20471;-82
2021/10/25 12:18:59;;;;;;;4.47;3.07;;;14.80;99.90;;;;;;5000288;28;20469;-82
2021/10/25 12:21:33;;;;;;;4.23;3.10;;;14.90;99.90;;;;;;5004084;28;20493;-81
2021/10/25 12:24:02;;;;;;;3.80;2.63;;;14.90;99.90;;;;;;4995030;28;20464;-85
2021/10/25 12:26:29;;;;;;;4.13;3.73;;;15.00;99.90;;;;;;5000609;28;20487;-83
2021/10/25 12:28:57;;;;;;;3.00;2.70;;;15.00;99.90;;;;;;4999180;28;21213;-82
2021/10/25 12:31:27;;;;;;;6.33;2.93;;;15.00;99.90;;;;;;5001393;28;20462;-82
2021/10/25 12:34:02;;;;;;;3.23;2.93;;;15.10;99.90;;;;;;5000451;28;20470;-82
2021/10/25 12:36:35;;;;;;;4.50;3.90;;;15.10;99.90;;;;;;4997025;28;20459;-82
2021/10/25 12:39:07;;;;;;;4.47;3.90;;;15.10;99.90;;;;;;5001788;28;20469;-84
2021/10/25 12:41:45;;;;;;;3.47;3.17;;;15.10;99.90;;;;;;5000420;28;20515;-82
2021/10/25 12:44:22;;;;;;;4.50;2.70;;;15.00;99.90;;;;;;4998139;28;20960;-83
2021/10/25 12:46:51;;;;;;;3.20;2.60;;;15.00;99.90;;;;;;4995161;28;20475;-82
2021/10/25 12:49:20;;;;;;;4.63;3.00;;;15.00;99.90;;;;;;4995916;28;20994;-85
2021/10/25 12:51:47;;;;;;;4.33;2.70;;;14.90;99.90;;;;;;5000563;28;20983;-85
2021/10/25 12:54:15;;;;;;;5.40;2.67;;;14.90;99.90;;;;;;4994761;28;20489;-82
2021/10/25 12:56:44;;;;;;;3.03;2.43;;;14.90;99.90;;;;;;4989294;28;21311;-82
2021/10/25 12:59:13;;;;;;;3.20;2.77;;;14.90;99.90;;;;;;4992417;28;20463;-82
2021/10/25 13:02:09;;;;;;;2.57;2.37;;;14.90;99.90;;;;;;4996873;28;20796;-82
2021/10/25 13:04:47;;;;;;;2.90;2.40;;;14.90;99.90;;;;;;4994850;28;20468;-83
2021/10/25 13:07:14;;;;;;;2.97;2.77;;;14.80;99.90;;;;;;4989884;28;20475;-81
2021/10/25 13:09:50;;;;;;;3.10;2.77;;;14.80;99.90;;;;;;4994529;28;20891;-82
2021/10/25 13:12:18;;;;;;;2.80;2.60;;;14.80;99.90;;;;;;4999901;28;20475;-82
2021/10/25 13:14:45;;;;;;;3.50;2.40;;;14.90;99.90;;;;;;4995903;28;20468;-81
2021/10/25 13:17:13;;;;;;;3.43;2.70;;;14.80;99.90;;;;;;4998942;28;20466;-85
2021/10/25 13:19:42;;;;;;;2.90;2.70;;;14.80;99.90;;;;;;5001491;28;20461;-84
2021/10/25 13:22:08;;;;;;;2.67;2.47;;;14.80;99.90;;;;;;4999948;28;21010;-82
2021/10/25 13:24:35;;;;;;;4.60;2.83;;;14.90;99.90;;;;;;5001893;28;20536;-82
2021/10/25 13:27:03;;;;;;;3.07;2.77;;;14.90;99.90;;;;;;5004760;28;20942;-81
2021/10/25 13:29:30;;;;;;;3.13;2.90;;;14.90;99.90;;;;;;4999757;28;21065;-81
2021/10/25 13:31:57;;;;;;;3.33;3.00;;;14.90;99.90;;;;;;5001230;28;20955;-85
2021/10/25 13:34:24;;;;;;;3.70;2.60;;;14.90;99.90;;;;;;4998311;28;20521;-82
2021/10/25 13:36:52;;;;;;;4.70;3.10;;;14.90;99.90;;;;;;4997455;28;20472;-85
2021/10/25 13:39:20;;;;;;;5.63;2.67;;;15.00;99.90;;;;;;5001817;28;21211;-82
2021/10/25 13:41:48;;;;;;;3.37;3.07;;;15.00;99.90;;;;;;5001961;28;20526;-82
2021/10/25 13:44:15;;;;;;;3.00;2.70;;;15.00;99.90;;;;;;5004451;28;20524;-82
2021/10/25 13:46:42;;;;;;;3.63;2.90;;;15.00;99.90;;;;;;5003495;28;20458;-82
2021/10/25 13:49:09;;;;;;;3.93;3.07;;;15.00;99.90;;;;;;5003962;28;20510;-84
2021/10/25 13:51:36;;;;;;;3.60;3.10;;;15.00;99.90;;;;;;5002692;28;20500;-82
2021/10/25 13:54:06;;;;;;;4.27;3.00;;;15.00;99.90;;;;;;5004968;28;20925;-85
2021/10/25 13:56:34;;;;;;;4.07;2.77;;;15.00;99.90;;;;;;5008087;28;20514;-81
2021/10/25 13:59:01;;;;;;;5.37;2.97;;;15.00;99.90;;;;;;5011089;28;20570;-82
2021/10/25 14:01:29;;;;;;;3.20;2.90;;;15.00;99.90;;;;;;5005713;28;20827;-81
2021/10/25 14:03:55;;;;;;;3.23;2.53;;;15.00;99.90;;;;;;5003582;28;20793;-82
2021/10/25 14:06:25;;;;;;;5.20;3.43;;;15.00;99.90;;;;;;4999076;28;20472;-82
2021/10/25 14:08:53;;;;;;;3.63;2.70;;;15.00;99.90;;;;;;5000646;28;20520;-82
2021/10/25 14:11:25;;;;;;;3.43;2.67;;;15.00;99.90;;;;;;5003923;28;20518;-83